sensor_id;sensor_type;location;lat;lon;timestamp;temperature;humidity
72202;SHT30;60105;54.956;73.412;2023-03-29T00:03:00;4.06;76.17
72202;SHT30;60105;54.956;73.412;2023-03-29T00:06:02;4.04;76.08
72202;SHT30;60105;54.956;73.412;2023-03-29T00:09:04;4.03;76.13
72202;SHT30;60105;54.956;73.412;2023-03-29T00:12:16;4.00;76.23
72202;SHT30;60105;54.956;73.412;2023-03-29T00:15:17;4.00;76.24
72202;SHT30;60105;54.956;73.412;2023-03-29T00:18:55;3.96;76.31
72202;SHT30;60105;54.956;73.412;2023-03-29T00:21:57;3.93;76.38
72202;SHT30;60105;54.956;73.412;2023-03-29T00:24:58;3.93;76.42
72202;SHT30;60105;54.956;73.412;2023-03-29T00:27:59;3.94;76.29
72202;SHT30;60105;54.956;73.412;2023-03-29T00:31:13;3.93;76.34
72202;SHT30;60105;54.956;73.412;2023-03-29T00:34:14;3.96;76.31
72202;SHT30;60105;54.956;73.412;2023-03-29T00:37:17;3.90;76.22
72202;SHT30;60105;54.956;73.412;2023-03-29T00:40:19;3.87;76.36
72202;SHT30;60105;54.956;73.412;2023-03-29T00:44:03;3.82;76.47
72202;SHT30;60105;54.956;73.412;2023-03-29T00:47:04;3.85;76.55
72202;SHT30;60105;54.956;73.412;2023-03-29T00:50:28;3.85;76.47
72202;SHT30;60105;54.956;73.412;2023-03-29T00:53:56;3.85;76.36
72202;SHT30;60105;54.956;73.412;2023-03-29T00:56:59;3.85;76.37
72202;SHT30;60105;54.956;73.412;2023-03-29T01:00:05;3.85;76.36
72202;SHT30;60105;54.956;73.412;2023-03-29T01:03:11;3.82;76.36
72202;SHT30;60105;54.956;73.412;2023-03-29T01:06:26;3.78;76.52
72202;SHT30;60105;54.956;73.412;2023-03-29T01:09:30;3.82;76.46
72202;SHT30;60105;54.956;73.412;2023-03-29T01:12:50;3.83;76.22
72202;SHT30;60105;54.956;73.412;2023-03-29T01:16:03;3.79;76.22
72202;SHT30;60105;54.956;73.412;2023-03-29T01:19:08;3.78;76.44
72202;SHT30;60105;54.956;73.412;2023-03-29T01:29:31;3.76;76.18
72202;SHT30;60105;54.956;73.412;2023-03-29T01:32:42;3.76;76.48
72202;SHT30;60105;54.956;73.412;2023-03-29T01:39:09;3.76;76.41
72202;SHT30;60105;54.956;73.412;2023-03-29T01:42:30;3.86;76.31
72202;SHT30;60105;54.956;73.412;2023-03-29T01:45:44;3.92;76.17
72202;SHT30;60105;54.956;73.412;2023-03-29T01:48:56;3.97;76.04
72202;SHT30;60105;54.956;73.412;2023-03-29T01:52:10;4.04;75.87
72202;SHT30;60105;54.956;73.412;2023-03-29T01:55:29;4.07;75.74
72202;SHT30;60105;54.956;73.412;2023-03-29T01:58:56;4.07;75.70
72202;SHT30;60105;54.956;73.412;2023-03-29T02:02:11;4.07;75.83
72202;SHT30;60105;54.956;73.412;2023-03-29T02:05:15;4.14;75.62
72202;SHT30;60105;54.956;73.412;2023-03-29T02:08:24;4.25;75.33
72202;SHT30;60105;54.956;73.412;2023-03-29T02:11:26;4.33;75.17
72202;SHT30;60105;54.956;73.412;2023-03-29T02:14:29;4.36;75.01
72202;SHT30;60105;54.956;73.412;2023-03-29T02:17:50;4.47;74.88
72202;SHT30;60105;54.956;73.412;2023-03-29T02:20:53;4.55;74.80
72202;SHT30;60105;54.956;73.412;2023-03-29T02:23:56;4.64;74.45
72202;SHT30;60105;54.956;73.412;2023-03-29T02:26:59;4.71;74.22
72202;SHT30;60105;54.956;73.412;2023-03-29T02:30:01;4.78;74.09
72202;SHT30;60105;54.956;73.412;2023-03-29T02:33:09;4.88;73.83
72202;SHT30;60105;54.956;73.412;2023-03-29T02:36:46;4.90;73.57
72202;SHT30;60105;54.956;73.412;2023-03-29T02:39:51;5.05;73.35
72202;SHT30;60105;54.956;73.412;2023-03-29T02:42:56;5.06;73.22
72202;SHT30;60105;54.956;73.412;2023-03-29T02:45:58;5.12;72.99
72202;SHT30;60105;54.956;73.412;2023-03-29T02:48:59;5.16;73.04
72202;SHT30;60105;54.956;73.412;2023-03-29T02:52:06;5.19;72.70
72202;SHT30;60105;54.956;73.412;2023-03-29T02:55:14;5.23;72.80
72202;SHT30;60105;54.956;73.412;2023-03-29T02:58:55;5.27;72.71
72202;SHT30;60105;54.956;73.412;2023-03-29T03:02:02;5.33;72.61
72202;SHT30;60105;54.956;73.412;2023-03-29T03:05:04;5.43;72.44
72202;SHT30;60105;54.956;73.412;2023-03-29T03:08:06;5.51;72.15
72202;SHT30;60105;54.956;73.412;2023-03-29T03:11:07;5.58;72.12
72202;SHT30;60105;54.956;73.412;2023-03-29T03:14:09;5.71;71.86
72202;SHT30;60105;54.956;73.412;2023-03-29T03:17:10;5.81;71.43
72202;SHT30;60105;54.956;73.412;2023-03-29T03:20:22;5.81;71.60
72202;SHT30;60105;54.956;73.412;2023-03-29T03:23:55;5.97;71.33
72202;SHT30;60105;54.956;73.412;2023-03-29T03:26:57;6.13;70.86
72202;SHT30;60105;54.956;73.412;2023-03-29T03:29:58;6.20;70.75
72202;SHT30;60105;54.956;73.412;2023-03-29T03:33:55;6.39;70.33
72202;SHT30;60105;54.956;73.412;2023-03-29T03:37:11;6.54;70.08
72202;SHT30;60105;54.956;73.412;2023-03-29T03:40:13;6.66;69.40
72202;SHT30;60105;54.956;73.412;2023-03-29T03:43:55;6.73;69.46
72202;SHT30;60105;54.956;73.412;2023-03-29T03:47:03;6.76;69.34
72202;SHT30;60105;54.956;73.412;2023-03-29T03:50:08;6.78;69.50
72202;SHT30;60105;54.956;73.412;2023-03-29T03:53:09;6.81;69.48
72202;SHT30;60105;54.956;73.412;2023-03-29T03:56:49;6.91;69.43
72202;SHT30;60105;54.956;73.412;2023-03-29T04:00:06;7.02;68.71
72202;SHT30;60105;54.956;73.412;2023-03-29T04:03:55;7.12;68.80
72202;SHT30;60105;54.956;73.412;2023-03-29T04:06:57;7.23;68.26
72202;SHT30;60105;54.956;73.412;2023-03-29T04:10:25;7.22;68.07
72202;SHT30;60105;54.956;73.412;2023-03-29T04:13:56;7.20;68.35
72202;SHT30;60105;54.956;73.412;2023-03-29T04:17:08;7.23;68.16
72202;SHT30;60105;54.956;73.412;2023-03-29T04:20:33;7.33;68.07
72202;SHT30;60105;54.956;73.412;2023-03-29T04:23:55;7.37;67.80
72202;SHT30;60105;54.956;73.412;2023-03-29T04:26:56;7.46;67.68
72202;SHT30;60105;54.956;73.412;2023-03-29T04:29:58;7.57;67.36
72202;SHT30;60105;54.956;73.412;2023-03-29T04:33:55;7.69;66.92
72202;SHT30;60105;54.956;73.412;2023-03-29T04:36:56;7.73;66.68
72202;SHT30;60105;54.956;73.412;2023-03-29T04:39:59;7.77;66.42
72202;SHT30;60105;54.956;73.412;2023-03-29T04:43:03;7.83;66.51
72202;SHT30;60105;54.956;73.412;2023-03-29T04:46:05;7.95;66.18
72202;SHT30;60105;54.956;73.412;2023-03-29T04:49:28;8.11;65.94
72202;SHT30;60105;54.956;73.412;2023-03-29T04:52:29;8.26;65.44
72202;SHT30;60105;54.956;73.412;2023-03-29T04:55:45;8.35;64.73
72202;SHT30;60105;54.956;73.412;2023-03-29T04:58:55;8.45;64.47
72202;SHT30;60105;54.956;73.412;2023-03-29T05:01:59;8.45;64.53
72202;SHT30;60105;54.956;73.412;2023-03-29T05:05:03;8.48;64.33
72202;SHT30;60105;54.956;73.412;2023-03-29T05:08:23;8.50;64.07
72202;SHT30;60105;54.956;73.412;2023-03-29T05:11:45;8.55;64.13
72202;SHT30;60105;54.956;73.412;2023-03-29T05:14:48;8.52;63.77
72202;SHT30;60105;54.956;73.412;2023-03-29T05:17:55;8.52;64.04
72202;SHT30;60105;54.956;73.412;2023-03-29T05:20:57;8.62;64.30
72202;SHT30;60105;54.956;73.412;2023-03-29T05:24:01;8.72;63.72
72202;SHT30;60105;54.956;73.412;2023-03-29T05:27:21;8.66;63.38
72202;SHT30;60105;54.956;73.412;2023-03-29T05:30:41;8.72;63.72
72202;SHT30;60105;54.956;73.412;2023-03-29T05:33:55;8.77;63.37
72202;SHT30;60105;54.956;73.412;2023-03-29T05:37:06;8.80;63.65
72202;SHT30;60105;54.956;73.412;2023-03-29T05:40:21;8.88;63.50
72202;SHT30;60105;54.956;73.412;2023-03-29T05:43:55;8.90;63.22
72202;SHT30;60105;54.956;73.412;2023-03-29T05:46:59;8.86;63.51
72202;SHT30;60105;54.956;73.412;2023-03-29T05:50:00;8.81;64.01
72202;SHT30;60105;54.956;73.412;2023-03-29T05:53:02;8.86;63.76
72202;SHT30;60105;54.956;73.412;2023-03-29T05:56:03;8.94;63.71
72202;SHT30;60105;54.956;73.412;2023-03-29T05:59:05;9.04;63.00
72202;SHT30;60105;54.956;73.412;2023-03-29T06:02:18;9.11;63.10
72202;SHT30;60105;54.956;73.412;2023-03-29T06:05:31;9.14;62.75
72202;SHT30;60105;54.956;73.412;2023-03-29T06:08:35;9.24;62.76
72202;SHT30;60105;54.956;73.412;2023-03-29T06:11:52;9.24;62.47
72202;SHT30;60105;54.956;73.412;2023-03-29T06:15:00;9.24;62.73
72202;SHT30;60105;54.956;73.412;2023-03-29T06:18:55;9.15;62.76
72202;SHT30;60105;54.956;73.412;2023-03-29T06:21:56;9.23;62.93
72202;SHT30;60105;54.956;73.412;2023-03-29T06:25:01;9.38;62.74
72202;SHT30;60105;54.956;73.412;2023-03-29T06:28:07;9.38;63.41
72202;SHT30;60105;54.956;73.412;2023-03-29T06:31:09;9.44;63.39
72202;SHT30;60105;54.956;73.412;2023-03-29T06:34:13;9.54;63.05
72202;SHT30;60105;54.956;73.412;2023-03-29T06:37:50;9.58;62.99
72202;SHT30;60105;54.956;73.412;2023-03-29T06:41:19;9.56;63.12
72202;SHT30;60105;54.956;73.412;2023-03-29T06:44:57;9.58;62.96
72202;SHT30;60105;54.956;73.412;2023-03-29T06:47:59;9.76;63.04
72202;SHT30;60105;54.956;73.412;2023-03-29T06:51:05;9.66;62.94
72202;SHT30;60105;54.956;73.412;2023-03-29T06:54:13;9.66;63.51
72202;SHT30;60105;54.956;73.412;2023-03-29T06:57:23;9.68;63.88
72202;SHT30;60105;54.956;73.412;2023-03-29T07:00:25;9.71;64.26
72202;SHT30;60105;54.956;73.412;2023-03-29T07:04:08;9.75;64.79
72202;SHT30;60105;54.956;73.412;2023-03-29T07:07:29;9.73;64.94
72202;SHT30;60105;54.956;73.412;2023-03-29T07:10:46;9.63;65.47
72202;SHT30;60105;54.956;73.412;2023-03-29T07:14:07;9.68;65.48
72202;SHT30;60105;54.956;73.412;2023-03-29T07:17:10;9.71;65.37
72202;SHT30;60105;54.956;73.412;2023-03-29T07:20:15;9.76;65.31
72202;SHT30;60105;54.956;73.412;2023-03-29T07:23:55;9.92;65.06
72202;SHT30;60105;54.956;73.412;2023-03-29T07:26:58;10.00;64.43
72202;SHT30;60105;54.956;73.412;2023-03-29T07:29:59;10.04;64.46
72202;SHT30;60105;54.956;73.412;2023-03-29T07:33:01;10.13;64.36
72202;SHT30;60105;54.956;73.412;2023-03-29T07:36:09;10.10;64.48
72202;SHT30;60105;54.956;73.412;2023-03-29T07:39:11;10.14;64.31
72202;SHT30;60105;54.956;73.412;2023-03-29T07:42:22;10.20;64.29
72202;SHT30;60105;54.956;73.412;2023-03-29T07:45:29;10.24;64.33
72202;SHT30;60105;54.956;73.412;2023-03-29T07:48:55;10.20;64.24
72202;SHT30;60105;54.956;73.412;2023-03-29T07:51:56;10.20;64.53
72202;SHT30;60105;54.956;73.412;2023-03-29T07:54:58;10.03;64.89
72202;SHT30;60105;54.956;73.412;2023-03-29T07:58:55;10.00;64.74
72202;SHT30;60105;54.956;73.412;2023-03-29T08:02:09;9.94;64.83
72202;SHT30;60105;54.956;73.412;2023-03-29T08:05:21;9.97;64.91
72202;SHT30;60105;54.956;73.412;2023-03-29T08:08:25;10.20;64.33
72202;SHT30;60105;54.956;73.412;2023-03-29T08:11:37;10.06;64.61
72202;SHT30;60105;54.956;73.412;2023-03-29T08:14:47;9.92;64.49
72202;SHT30;60105;54.956;73.412;2023-03-29T08:18:05;9.82;64.76
72202;SHT30;60105;54.956;73.412;2023-03-29T08:21:06;9.85;65.36
72202;SHT30;60105;54.956;73.412;2023-03-29T08:24:08;9.92;64.88
72202;SHT30;60105;54.956;73.412;2023-03-29T08:27:19;9.83;64.63
72202;SHT30;60105;54.956;73.412;2023-03-29T08:30:21;9.69;64.89
72202;SHT30;60105;54.956;73.412;2023-03-29T08:33:55;9.59;65.15
72202;SHT30;60105;54.956;73.412;2023-03-29T08:37:17;9.48;65.69
72202;SHT30;60105;54.956;73.412;2023-03-29T08:40:24;9.52;65.73
72202;SHT30;60105;54.956;73.412;2023-03-29T08:43:57;9.52;65.11
72202;SHT30;60105;54.956;73.412;2023-03-29T08:50:35;9.38;65.57
72202;SHT30;60105;54.956;73.412;2023-03-29T08:54:17;8.94;66.80
72202;SHT30;60105;54.956;73.412;2023-03-29T08:57:42;8.88;66.99
72202;SHT30;60105;54.956;73.412;2023-03-29T09:00:58;8.70;67.39
72202;SHT30;60105;54.956;73.412;2023-03-29T09:04:15;8.41;68.79
72202;SHT30;60105;54.956;73.412;2023-03-29T09:07:45;8.20;69.32
72202;SHT30;60105;54.956;73.412;2023-03-29T09:20:54;7.16;72.64
72202;SHT30;60105;54.956;73.412;2023-03-29T09:34:20;5.97;74.62
72202;SHT30;60105;54.956;73.412;2023-03-29T09:37:36;5.94;74.98
72202;SHT30;60105;54.956;73.412;2023-03-29T09:40:50;5.87;74.42
72202;SHT30;60105;54.956;73.412;2023-03-29T09:43:59;5.58;74.01
72202;SHT30;60105;54.956;73.412;2023-03-29T09:47:17;5.33;74.85
72202;SHT30;60105;54.956;73.412;2023-03-29T09:50:25;5.22;75.17
72202;SHT30;60105;54.956;73.412;2023-03-29T09:53:56;4.97;75.82
72202;SHT30;60105;54.956;73.412;2023-03-29T09:57:24;4.76;76.27
72202;SHT30;60105;54.956;73.412;2023-03-29T10:00:28;4.73;76.17
72202;SHT30;60105;54.956;73.412;2023-03-29T10:03:55;4.75;76.03
72202;SHT30;60105;54.956;73.412;2023-03-29T10:06:57;4.81;75.62
72202;SHT30;60105;54.956;73.412;2023-03-29T10:10:00;4.78;75.15
72202;SHT30;60105;54.956;73.412;2023-03-29T10:13:06;4.71;75.01
72202;SHT30;60105;54.956;73.412;2023-03-29T10:16:21;4.73;74.66
72202;SHT30;60105;54.956;73.412;2023-03-29T10:19:32;4.76;73.52
72202;SHT30;60105;54.956;73.412;2023-03-29T10:22:37;4.67;72.79
72202;SHT30;60105;54.956;73.412;2023-03-29T10:25:40;4.83;72.51
72202;SHT30;60105;54.956;73.412;2023-03-29T10:28:54;4.99;71.50
72202;SHT30;60105;54.956;73.412;2023-03-29T10:31:57;4.93;68.70
72202;SHT30;60105;54.956;73.412;2023-03-29T10:35:19;4.82;67.97
72202;SHT30;60105;54.956;73.412;2023-03-29T10:38:27;4.71;67.47
72202;SHT30;60105;54.956;73.412;2023-03-29T10:41:32;4.68;67.05
72202;SHT30;60105;54.956;73.412;2023-03-29T10:44:53;4.69;67.22
72202;SHT30;60105;54.956;73.412;2023-03-29T10:47:56;4.75;66.94
72202;SHT30;60105;54.956;73.412;2023-03-29T10:51:00;4.72;66.15
72202;SHT30;60105;54.956;73.412;2023-03-29T10:54:18;4.57;66.45
72202;SHT30;60105;54.956;73.412;2023-03-29T10:57:25;4.42;66.55
72202;SHT30;60105;54.956;73.412;2023-03-29T11:00:53;4.30;66.29
72202;SHT30;60105;54.956;73.412;2023-03-29T11:04:03;4.24;65.42
72202;SHT30;60105;54.956;73.412;2023-03-29T11:07:16;4.27;64.59
72202;SHT30;60105;54.956;73.412;2023-03-29T11:10:45;4.20;64.33
72202;SHT30;60105;54.956;73.412;2023-03-29T11:24:22;3.96;64.56
72202;SHT30;60105;54.956;73.412;2023-03-29T11:27:41;3.85;64.64
72202;SHT30;60105;54.956;73.412;2023-03-29T11:31:14;3.94;63.81
72202;SHT30;60105;54.956;73.412;2023-03-29T11:41:10;3.76;61.58
72202;SHT30;60105;54.956;73.412;2023-03-29T11:44:29;3.54;62.86
72202;SHT30;60105;54.956;73.412;2023-03-29T11:47:32;3.32;63.91
72202;SHT30;60105;54.956;73.412;2023-03-29T11:50:45;3.27;63.29
72202;SHT30;60105;54.956;73.412;2023-03-29T11:53:57;3.27;63.15
72202;SHT30;60105;54.956;73.412;2023-03-29T11:57:04;3.20;63.11
72202;SHT30;60105;54.956;73.412;2023-03-29T12:03:58;3.27;62.97
72202;SHT30;60105;54.956;73.412;2023-03-29T12:07:13;3.22;63.06
72202;SHT30;60105;54.956;73.412;2023-03-29T12:10:26;3.32;62.39
72202;SHT30;60105;54.956;73.412;2023-03-29T12:17:15;3.14;62.07
72202;SHT30;60105;54.956;73.412;2023-03-29T12:20:23;3.08;62.96
72202;SHT30;60105;54.956;73.412;2023-03-29T12:23:54;3.01;62.69
72202;SHT30;60105;54.956;73.412;2023-03-29T12:31:25;2.82;62.96
72202;SHT30;60105;54.956;73.412;2023-03-29T12:38:34;2.49;62.59
72202;SHT30;60105;54.956;73.412;2023-03-29T12:42:20;2.20;63.18
72202;SHT30;60105;54.956;73.412;2023-03-29T12:45:39;2.08;64.07
72202;SHT30;60105;54.956;73.412;2023-03-29T12:48:56;1.97;63.48
72202;SHT30;60105;54.956;73.412;2023-03-29T12:52:21;1.88;63.83
72202;SHT30;60105;54.956;73.412;2023-03-29T12:55:32;1.78;63.61
72202;SHT30;60105;54.956;73.412;2023-03-29T13:05:27;1.73;64.01
72202;SHT30;60105;54.956;73.412;2023-03-29T13:08:35;1.71;63.84
72202;SHT30;60105;54.956;73.412;2023-03-29T13:11:38;1.70;64.20
72202;SHT30;60105;54.956;73.412;2023-03-29T13:14:58;1.78;64.09
72202;SHT30;60105;54.956;73.412;2023-03-29T13:21:29;1.74;65.16
72202;SHT30;60105;54.956;73.412;2023-03-29T13:28:04;1.67;64.32
72202;SHT30;60105;54.956;73.412;2023-03-29T13:31:26;1.74;64.88
72202;SHT30;60105;54.956;73.412;2023-03-29T13:35:00;1.70;65.07
72202;SHT30;60105;54.956;73.412;2023-03-29T13:38:24;1.74;64.50
72202;SHT30;60105;54.956;73.412;2023-03-29T13:44:43;1.43;62.83
72202;SHT30;60105;54.956;73.412;2023-03-29T13:48:20;1.31;62.64
72202;SHT30;60105;54.956;73.412;2023-03-29T13:51:40;1.06;63.51
72202;SHT30;60105;54.956;73.412;2023-03-29T13:58:11;1.01;62.48
72202;SHT30;60105;54.956;73.412;2023-03-29T14:01:40;0.91;63.30
72202;SHT30;60105;54.956;73.412;2023-03-29T14:04:45;0.91;63.26
72202;SHT30;60105;54.956;73.412;2023-03-29T14:07:51;0.89;62.78
72202;SHT30;60105;54.956;73.412;2023-03-29T14:10:54;0.78;62.99
72202;SHT30;60105;54.956;73.412;2023-03-29T14:13:57;0.77;62.98
72202;SHT30;60105;54.956;73.412;2023-03-29T14:16:59;0.83;63.31
72202;SHT30;60105;54.956;73.412;2023-03-29T14:20:01;0.77;63.34
72202;SHT30;60105;54.956;73.412;2023-03-29T14:23:58;0.85;63.87
72202;SHT30;60105;54.956;73.412;2023-03-29T14:27:02;0.92;63.10
72202;SHT30;60105;54.956;73.412;2023-03-29T14:30:22;0.98;63.52
72202;SHT30;60105;54.956;73.412;2023-03-29T14:33:57;0.98;63.05
72202;SHT30;60105;54.956;73.412;2023-03-29T14:36:58;0.96;62.30
72202;SHT30;60105;54.956;73.412;2023-03-29T14:40:00;0.80;61.10
72202;SHT30;60105;54.956;73.412;2023-03-29T14:43:05;0.60;61.70
72202;SHT30;60105;54.956;73.412;2023-03-29T14:46:08;0.46;61.62
72202;SHT30;60105;54.956;73.412;2023-03-29T14:49:16;0.44;61.81
72202;SHT30;60105;54.956;73.412;2023-03-29T14:52:29;0.33;60.98
72202;SHT30;60105;54.956;73.412;2023-03-29T14:55:31;0.27;60.99
72202;SHT30;60105;54.956;73.412;2023-03-29T14:58:55;0.23;60.48
72202;SHT30;60105;54.956;73.412;2023-03-29T15:01:57;0.16;60.98
72202;SHT30;60105;54.956;73.412;2023-03-29T15:05:06;0.17;60.82
72202;SHT30;60105;54.956;73.412;2023-03-29T15:08:35;0.16;60.51
72202;SHT30;60105;54.956;73.412;2023-03-29T15:11:50;-0.01;60.85
72202;SHT30;60105;54.956;73.412;2023-03-29T15:14:51;0.01;61.02
72202;SHT30;60105;54.956;73.412;2023-03-29T15:17:53;0.05;61.15
72202;SHT30;60105;54.956;73.412;2023-03-29T15:21:01;-0.01;60.77
72202;SHT30;60105;54.956;73.412;2023-03-29T15:24:03;-0.04;60.91
72202;SHT30;60105;54.956;73.412;2023-03-29T15:27:16;-0.11;61.48
72202;SHT30;60105;54.956;73.412;2023-03-29T15:30:32;-0.16;60.96
72202;SHT30;60105;54.956;73.412;2023-03-29T15:34:01;-0.19;60.48
72202;SHT30;60105;54.956;73.412;2023-03-29T15:37:03;-0.28;60.74
72202;SHT30;60105;54.956;73.412;2023-03-29T15:40:08;-0.40;61.40
72202;SHT30;60105;54.956;73.412;2023-03-29T15:43:55;-0.28;60.44
72202;SHT30;60105;54.956;73.412;2023-03-29T15:46:56;-0.22;60.21
72202;SHT30;60105;54.956;73.412;2023-03-29T15:49:59;-0.23;60.11
72202;SHT30;60105;54.956;73.412;2023-03-29T15:53:00;-0.32;59.25
72202;SHT30;60105;54.956;73.412;2023-03-29T15:56:04;-0.36;59.49
72202;SHT30;60105;54.956;73.412;2023-03-29T15:59:17;-0.49;59.63
72202;SHT30;60105;54.956;73.412;2023-03-29T16:02:24;-0.50;59.96
72202;SHT30;60105;54.956;73.412;2023-03-29T16:05:25;-0.52;59.82
72202;SHT30;60105;54.956;73.412;2023-03-29T16:08:32;-0.57;60.09
72202;SHT30;60105;54.956;73.412;2023-03-29T16:11:33;-0.63;59.95
72202;SHT30;60105;54.956;73.412;2023-03-29T16:14:45;-0.54;59.44
72202;SHT30;60105;54.956;73.412;2023-03-29T16:17:46;-0.57;59.46
72202;SHT30;60105;54.956;73.412;2023-03-29T16:20:47;-0.56;59.36
72202;SHT30;60105;54.956;73.412;2023-03-29T16:23:54;-0.63;59.72
72202;SHT30;60105;54.956;73.412;2023-03-29T16:26:56;-0.53;59.10
72202;SHT30;60105;54.956;73.412;2023-03-29T16:29:58;-0.59;58.86
72202;SHT30;60105;54.956;73.412;2023-03-29T16:33:02;-0.56;58.87
72202;SHT30;60105;54.956;73.412;2023-03-29T16:36:09;-0.62;58.96
72202;SHT30;60105;54.956;73.412;2023-03-29T16:39:10;-0.57;59.07
72202;SHT30;60105;54.956;73.412;2023-03-29T16:42:13;-0.62;58.44
72202;SHT30;60105;54.956;73.412;2023-03-29T16:45:16;-0.59;58.95
72202;SHT30;60105;54.956;73.412;2023-03-29T16:48:55;-0.69;59.07
72202;SHT30;60105;54.956;73.412;2023-03-29T16:52:03;-0.64;58.61
72202;SHT30;60105;54.956;73.412;2023-03-29T16:55:06;-0.57;57.53
72202;SHT30;60105;54.956;73.412;2023-03-29T16:58:07;-0.74;57.70
72202;SHT30;60105;54.956;73.412;2023-03-29T17:01:15;-0.73;57.59
72202;SHT30;60105;54.956;73.412;2023-03-29T17:04:17;-0.67;57.36
72202;SHT30;60105;54.956;73.412;2023-03-29T17:07:18;-0.66;57.41
72202;SHT30;60105;54.956;73.412;2023-03-29T17:10:24;-0.74;57.38
72202;SHT30;60105;54.956;73.412;2023-03-29T17:13:55;-0.83;57.29
72202;SHT30;60105;54.956;73.412;2023-03-29T17:16:56;-0.81;57.13
72202;SHT30;60105;54.956;73.412;2023-03-29T17:19:58;-0.81;56.77
72202;SHT30;60105;54.956;73.412;2023-03-29T17:23:09;-0.90;57.04
72202;SHT30;60105;54.956;73.412;2023-03-29T17:26:15;-0.91;57.16
72202;SHT30;60105;54.956;73.412;2023-03-29T17:29:22;-0.95;57.25
72202;SHT30;60105;54.956;73.412;2023-03-29T17:32:23;-0.93;56.94
72202;SHT30;60105;54.956;73.412;2023-03-29T17:35:25;-0.95;57.14
72202;SHT30;60105;54.956;73.412;2023-03-29T17:38:26;-0.95;57.04
72202;SHT30;60105;54.956;73.412;2023-03-29T17:41:29;-1.04;57.17
72202;SHT30;60105;54.956;73.412;2023-03-29T17:44:31;-1.00;56.91
72202;SHT30;60105;54.956;73.412;2023-03-29T17:47:33;-1.05;56.82
72202;SHT30;60105;54.956;73.412;2023-03-29T17:50:34;-1.11;56.73
72202;SHT30;60105;54.956;73.412;2023-03-29T17:53:54;-1.00;56.68
72202;SHT30;60105;54.956;73.412;2023-03-29T17:57:02;-1.08;56.73
72202;SHT30;60105;54.956;73.412;2023-03-29T18:00:14;-1.11;57.04
72202;SHT30;60105;54.956;73.412;2023-03-29T18:03:54;-1.16;57.15
72202;SHT30;60105;54.956;73.412;2023-03-29T18:06:56;-1.19;57.08
72202;SHT30;60105;54.956;73.412;2023-03-29T18:09:57;-1.21;57.36
72202;SHT30;60105;54.956;73.412;2023-03-29T18:13:03;-1.24;57.35
72202;SHT30;60105;54.956;73.412;2023-03-29T18:16:06;-1.22;57.49
72202;SHT30;60105;54.956;73.412;2023-03-29T18:19:07;-1.19;57.18
72202;SHT30;60105;54.956;73.412;2023-03-29T18:22:21;-1.08;56.59
72202;SHT30;60105;54.956;73.412;2023-03-29T18:25:28;-1.22;56.63
72202;SHT30;60105;54.956;73.412;2023-03-29T18:28:54;-1.30;56.71
72202;SHT30;60105;54.956;73.412;2023-03-29T18:31:56;-1.32;56.90
72202;SHT30;60105;54.956;73.412;2023-03-29T18:35:07;-1.34;56.48
72202;SHT30;60105;54.956;73.412;2023-03-29T18:38:09;-1.36;56.82
72202;SHT30;60105;54.956;73.412;2023-03-29T18:41:12;-1.41;57.25
72202;SHT30;60105;54.956;73.412;2023-03-29T18:44:13;-1.45;56.87
72202;SHT30;60105;54.956;73.412;2023-03-29T18:47:15;-1.48;56.68
72202;SHT30;60105;54.956;73.412;2023-03-29T18:50:18;-1.39;56.79
72202;SHT30;60105;54.956;73.412;2023-03-29T18:53:55;-1.48;57.03
72202;SHT30;60105;54.956;73.412;2023-03-29T18:57:02;-1.52;56.95
72202;SHT30;60105;54.956;73.412;2023-03-29T19:00:04;-1.52;57.12
72202;SHT30;60105;54.956;73.412;2023-03-29T19:03:54;-1.62;57.49
72202;SHT30;60105;54.956;73.412;2023-03-29T19:07:00;-1.59;57.09
72202;SHT30;60105;54.956;73.412;2023-03-29T19:10:03;-1.60;57.22
72202;SHT30;60105;54.956;73.412;2023-03-29T19:13:10;-1.60;57.62
72202;SHT30;60105;54.956;73.412;2023-03-29T19:16:11;-1.62;57.58
72202;SHT30;60105;54.956;73.412;2023-03-29T19:19:13;-1.69;57.30
72202;SHT30;60105;54.956;73.412;2023-03-29T19:22:15;-1.67;57.59
72202;SHT30;60105;54.956;73.412;2023-03-29T19:25:22;-1.64;57.10
72202;SHT30;60105;54.956;73.412;2023-03-29T19:28:54;-1.72;57.36
72202;SHT30;60105;54.956;73.412;2023-03-29T19:32:06;-1.82;57.80
72202;SHT30;60105;54.956;73.412;2023-03-29T19:35:12;-1.72;57.19
72202;SHT30;60105;54.956;73.412;2023-03-29T19:38:23;-1.64;57.05
72202;SHT30;60105;54.956;73.412;2023-03-29T19:41:24;-1.82;57.47
72202;SHT30;60105;54.956;73.412;2023-03-29T19:44:26;-1.82;57.53
72202;SHT30;60105;54.956;73.412;2023-03-29T19:47:28;-1.72;57.58
72202;SHT30;60105;54.956;73.412;2023-03-29T19:50:29;-1.89;57.64
72202;SHT30;60105;54.956;73.412;2023-03-29T19:53:54;-1.89;57.51
72202;SHT30;60105;54.956;73.412;2023-03-29T19:56:56;-1.83;57.13
72202;SHT30;60105;54.956;73.412;2023-03-29T20:00:04;-2.01;57.59
72202;SHT30;60105;54.956;73.412;2023-03-29T20:03:54;-1.95;57.79
72202;SHT30;60105;54.956;73.412;2023-03-29T20:06:56;-1.94;57.64
72202;SHT30;60105;54.956;73.412;2023-03-29T20:09:57;-1.91;57.65
72202;SHT30;60105;54.956;73.412;2023-03-29T20:13:03;-1.97;57.70
72202;SHT30;60105;54.956;73.412;2023-03-29T20:16:11;-2.00;57.54
72202;SHT30;60105;54.956;73.412;2023-03-29T20:19:13;-2.01;57.86
72202;SHT30;60105;54.956;73.412;2023-03-29T20:22:14;-2.04;58.05
72202;SHT30;60105;54.956;73.412;2023-03-29T20:25:15;-2.04;58.14
72202;SHT30;60105;54.956;73.412;2023-03-29T20:28:54;-2.05;58.35
72202;SHT30;60105;54.956;73.412;2023-03-29T20:32:06;-1.97;57.85
72202;SHT30;60105;54.956;73.412;2023-03-29T20:35:07;-2.00;58.17
72202;SHT30;60105;54.956;73.412;2023-03-29T20:38:23;-1.95;57.51
72202;SHT30;60105;54.956;73.412;2023-03-29T20:41:24;-1.98;57.68
72202;SHT30;60105;54.956;73.412;2023-03-29T20:44:26;-1.94;57.56
72202;SHT30;60105;54.956;73.412;2023-03-29T20:47:28;-2.03;57.66
72202;SHT30;60105;54.956;73.412;2023-03-29T20:50:29;-2.14;57.53
72202;SHT30;60105;54.956;73.412;2023-03-29T20:53:57;-2.20;57.86
72202;SHT30;60105;54.956;73.412;2023-03-29T20:57:17;-2.22;58.36
72202;SHT30;60105;54.956;73.412;2023-03-29T21:00:19;-2.24;58.05
72202;SHT30;60105;54.956;73.412;2023-03-29T21:03:54;-2.20;58.01
72202;SHT30;60105;54.956;73.412;2023-03-29T21:06:56;-2.21;58.15
72202;SHT30;60105;54.956;73.412;2023-03-29T21:09:58;-2.21;58.07
72202;SHT30;60105;54.956;73.412;2023-03-29T21:13:01;-2.25;58.16
72202;SHT30;60105;54.956;73.412;2023-03-29T21:16:08;-2.25;57.76
72202;SHT30;60105;54.956;73.412;2023-03-29T21:19:09;-2.25;57.78
72202;SHT30;60105;54.956;73.412;2023-03-29T21:22:10;-2.18;57.69
72202;SHT30;60105;54.956;73.412;2023-03-29T21:25:14;-2.17;57.61
72202;SHT30;60105;54.956;73.412;2023-03-29T21:28:55;-2.21;57.72
72202;SHT30;60105;54.956;73.412;2023-03-29T21:32:06;-2.28;57.86